Thursday, September 20, 2018, 6:22 PM EDT
Back to Local

KFOK, The Gabreski Airport

Location: East Quogue, NY, United States Lat: 40.85
Local Time: 6:22 PM EDT (22:22 GMT) Lon: -72.617
Time Zone: US/Eastern Elev: 65 ft

Show me the last for .
Show Decoded

2018-09-20 17:53 METAR KFOK 202153Z 10006KT 10SM CLR 20/14 A3025 RMK AO2 SLP243 T02000144 =
2018-09-20 16:53 METAR KFOK 202053Z 10006KT 10SM CLR 21/14 A3024 RMK AO2 SLP239 T02060144 55001 =
2018-09-20 15:53 METAR KFOK 201953Z 12007KT 10SM FEW031 22/14 A3023 RMK AO2 SLP236 T02170144 =
2018-09-20 14:53 METAR KFOK 201853Z 04008KT 10SM CLR 23/13 A3023 RMK AO2 SLP236 T02280133 =
2018-09-20 13:53 METAR KFOK 201753Z 09007KT 10SM CLR 22/13 A3024 RMK AO2 SLP240 T02170133 10222
                 20183 58001 =
2018-09-20 12:53 METAR KFOK 201653Z 02008KT 10SM FEW023 BKN055 21/13 A3025 RMK AO2 SLP244
                 T02110133 =
2018-09-20 11:53 METAR KFOK 201553Z 04011KT 10SM CLR 21/14 A3025 RMK AO2 SLP244 T02110144 =
2018-09-20 10:53 METAR KFOK 201453Z 05008KT 020V090 10SM FEW019 21/14 A3024 RMK AO2 SLP241
                 T02060139 51019 =
2018-09-20 09:53 METAR KFOK 201353Z 03013KT 10SM FEW017 19/13 A3023 RMK AO2 SLP236 T01940133 =
2018-09-20 08:53 METAR KFOK 201253Z 03009KT 10SM FEW017 BKN055 19/13 A3021 RMK AO2 SLP229
                 T01890133 =
2018-09-20 07:53 METAR KFOK 201153Z 02010KT 10SM OVC060 18/14 A3019 RMK AO2 SLP222 T01830139
                 10183 20150 53019 =
2018-09-20 06:53 METAR KFOK 201053Z 36006KT 10SM SCT022 OVC060 16/13 A3017 RMK AO2 SLP214
                 T01610128 =
2018-09-20 06:33 METAR KFOK 201033Z AUTO 36006KT 10SM BKN021 OVC060 16/13 A3016 RMK AO2 T01610133
                 =
2018-09-20 06:26 METAR KFOK 201026Z AUTO 02007KT 10SM SCT021 OVC060 17/13 A3016 RMK AO2 T01670133
                 =
2018-09-20 05:53 METAR KFOK 200953Z AUTO 05005KT 10SM BKN019 OVC024 17/13 A3015 RMK AO2 SLP209
                 T01670133 =
2018-09-20 04:53 METAR KFOK 200853Z AUTO 06003KT 10SM OVC021 17/13 A3013 RMK AO2 SLP204 T01670128
                 53007 =
2018-09-20 04:00 METAR KFOK 200800Z AUTO 04004KT 10SM BKN021 16/13 A3013 RMK AO2 T01610128 =
2018-09-20 03:53 METAR KFOK 200753Z AUTO 05004KT 10SM SCT021 16/12 A3012 RMK AO2 SLP199 T01560122
                 =
2018-09-20 03:19 METAR KFOK 200719Z AUTO 08004KT 10SM SCT020 BKN060 15/12 A3011 RMK AO2 T01500122
                 =
2018-09-20 02:53 METAR KFOK 200653Z AUTO VRB03KT 10SM BKN020 16/12 A3012 RMK AO2 SLP198 T01610122
                 =
2018-09-20 01:53 METAR KFOK 200553Z AUTO 06007KT 10SM BKN022 OVC040 17/13 A3011 RMK AO2 SLP196
                 T01720128 10194 20172 51009 =
2018-09-20 01:14 METAR KFOK 200514Z AUTO 06005KT 10SM BKN022 OVC036 17/13 A3011 RMK AO2 T01720128
                 =
2018-09-20 00:53 METAR KFOK 200453Z AUTO 06007KT 10SM FEW024 OVC035 17/12 A3011 RMK AO2 SLP195
                 T01720122 402390172 =
2018-09-20 00:16 METAR KFOK 200416Z AUTO 05011KT 10SM SCT020 OVC036 17/12 A3010 RMK AO2 T01720122
                 =
2018-09-19 23:53 METAR KFOK 200353Z AUTO 04009KT 10SM OVC020 17/13 A3010 RMK AO2 SLP193 T01720128
                 =
2018-09-19 22:53 METAR KFOK 200253Z 05008G14KT 10SM OVC019 18/13 A3008 RMK AO2 SLP187 T01780133
                 53014 =
2018-09-19 21:53 METAR KFOK 200153Z 05008KT 10SM BKN018 BKN038 OVC055 18/14 A3006 RMK AO2 SLP179
                 T01830144 =
2018-09-19 21:51 METAR KFOK 200151Z 06008KT 10SM BKN018 BKN038 BKN055 18/14 A3006 RMK AO2 =
2018-09-19 21:33 METAR KFOK 200133Z 08005KT 10SM SCT018 BKN039 BKN055 18/14 A3005 RMK AO2
                 T01830144 =
2018-09-19 20:53 METAR KFOK 200053Z 05007KT 10SM BKN018 OVC048 19/15 A3004 RMK AO2 SLP173
                 T01890150 =
2018-09-19 20:51 METAR KFOK 200051Z 06007KT 10SM BKN018 BKN037 OVC048 19/15 A3004 RMK AO2 =
2018-09-19 19:53 METAR KFOK 192353Z 08006KT 10SM BKN044 19/16 A3001 RMK AO2 SLP162 T01940156
                 10239 20194 53011 =
2018-09-19 19:23 METAR KFOK 192323Z 09007KT 10SM SCT018 19/16 A3000 RMK AO2 T01940161 =
2018-09-19 19:14 METAR KFOK 192314Z 08008KT 10SM BKN018 BKN039 20/17 A3000 RMK AO2 T02000167 =
2018-09-19 18:53 METAR KFOK 192253Z 08008KT 10SM SCT020 BKN037 21/17 A3000 RMK AO2 SLP156
                 T02060167 =

Support USWX by starting your Amazon purchase here.